sensor_id;sensor_type;location;lat;lon;timestamp;P1;durP1;ratioP1;P2;durP2;ratioP2
47790;SDS011;33547;49.044;1.156;2022-11-20T00:01:30;1.42;;;1.20;;
47790;SDS011;33547;49.044;1.156;2022-11-20T00:03:56;1.42;;;1.20;;
47790;SDS011;33547;49.044;1.156;2022-11-20T00:06:24;2.55;;;1.60;;
47790;SDS011;33547;49.044;1.156;2022-11-20T00:08:53;2.55;;;1.67;;
47790;SDS011;33547;49.044;1.156;2022-11-20T00:11:22;2.33;;;1.60;;
47790;SDS011;33547;49.044;1.156;2022-11-20T00:13:50;1.40;;;1.30;;
47790;SDS011;33547;49.044;1.156;2022-11-20T00:16:19;1.38;;;1.15;;
47790;SDS011;33547;49.044;1.156;2022-11-20T00:18:47;2.03;;;1.25;;
47790;SDS011;33547;49.044;1.156;2022-11-20T00:21:14;2.03;;;1.30;;
47790;SDS011;33547;49.044;1.156;2022-11-20T00:23:43;1.50;;;1.35;;
47790;SDS011;33547;49.044;1.156;2022-11-20T00:26:10;1.75;;;1.30;;
47790;SDS011;33547;49.044;1.156;2022-11-20T00:28:39;1.67;;;1.40;;
47790;SDS011;33547;49.044;1.156;2022-11-20T00:31:08;1.92;;;1.30;;
47790;SDS011;33547;49.044;1.156;2022-11-20T00:33:37;5.45;;;1.60;;
47790;SDS011;33547;49.044;1.156;2022-11-20T00:36:03;1.83;;;1.52;;
47790;SDS011;33547;49.044;1.156;2022-11-20T00:38:35;2.25;;;1.30;;
47790;SDS011;33547;49.044;1.156;2022-11-20T00:41:02;2.15;;;1.35;;
47790;SDS011;33547;49.044;1.156;2022-11-20T00:43:32;2.05;;;1.30;;
47790;SDS011;33547;49.044;1.156;2022-11-20T00:45:58;3.17;;;1.33;;
47790;SDS011;33547;49.044;1.156;2022-11-20T00:48:30;1.55;;;1.30;;
47790;SDS011;33547;49.044;1.156;2022-11-20T00:50:56;1.45;;;1.10;;
47790;SDS011;33547;49.044;1.156;2022-11-20T00:53:22;1.67;;;1.40;;
47790;SDS011;33547;49.044;1.156;2022-11-20T00:55:55;1.98;;;1.40;;
47790;SDS011;33547;49.044;1.156;2022-11-20T00:58:24;1.40;;;1.30;;
47790;SDS011;33547;49.044;1.156;2022-11-20T01:00:59;1.30;;;1.20;;
47790;SDS011;33547;49.044;1.156;2022-11-20T01:03:27;1.52;;;1.40;;
47790;SDS011;33547;49.044;1.156;2022-11-20T01:05:53;2.13;;;1.67;;
47790;SDS011;33547;49.044;1.156;2022-11-20T01:08:18;3.30;;;1.40;;
47790;SDS011;33547;49.044;1.156;2022-11-20T01:10:44;2.30;;;1.42;;
47790;SDS011;33547;49.044;1.156;2022-11-20T01:13:10;1.48;;;1.38;;
47790;SDS011;33547;49.044;1.156;2022-11-20T01:15:54;2.15;;;1.40;;
47790;SDS011;33547;49.044;1.156;2022-11-20T01:18:20;1.83;;;1.48;;
47790;SDS011;33547;49.044;1.156;2022-11-20T01:20:46;2.55;;;1.50;;
47790;SDS011;33547;49.044;1.156;2022-11-20T01:23:12;1.40;;;1.30;;
47790;SDS011;33547;49.044;1.156;2022-11-20T01:25:37;1.85;;;1.38;;
47790;SDS011;33547;49.044;1.156;2022-11-20T01:28:03;2.10;;;1.45;;
47790;SDS011;33547;49.044;1.156;2022-11-20T01:30:29;1.83;;;1.30;;
47790;SDS011;33547;49.044;1.156;2022-11-20T01:32:55;1.83;;;1.50;;
47790;SDS011;33547;49.044;1.156;2022-11-20T01:35:21;1.50;;;1.33;;
47790;SDS011;33547;49.044;1.156;2022-11-20T01:37:46;1.20;;;1.10;;
47790;SDS011;33547;49.044;1.156;2022-11-20T01:40:12;1.90;;;1.60;;
47790;SDS011;33547;49.044;1.156;2022-11-20T01:42:38;2.50;;;1.60;;
47790;SDS011;33547;49.044;1.156;2022-11-20T01:45:45;1.35;;;1.25;;
47790;SDS011;33547;49.044;1.156;2022-11-20T01:48:23;1.50;;;1.40;;
47790;SDS011;33547;49.044;1.156;2022-11-20T01:50:57;1.48;;;1.00;;
47790;SDS011;33547;49.044;1.156;2022-11-20T01:53:25;1.70;;;1.30;;
47790;SDS011;33547;49.044;1.156;2022-11-20T01:55:58;1.45;;;1.35;;
47790;SDS011;33547;49.044;1.156;2022-11-20T01:58:31;2.15;;;1.55;;
47790;SDS011;33547;49.044;1.156;2022-11-20T02:01:01;1.42;;;1.30;;
47790;SDS011;33547;49.044;1.156;2022-11-20T02:03:27;1.88;;;1.20;;
47790;SDS011;33547;49.044;1.156;2022-11-20T02:05:55;2.55;;;1.33;;
47790;SDS011;33547;49.044;1.156;2022-11-20T02:08:44;1.27;;;1.17;;
47790;SDS011;33547;49.044;1.156;2022-11-20T02:11:10;1.70;;;1.40;;
47790;SDS011;33547;49.044;1.156;2022-11-20T02:13:40;2.00;;;1.38;;
47790;SDS011;33547;49.044;1.156;2022-11-20T02:16:17;1.80;;;1.20;;
47790;SDS011;33547;49.044;1.156;2022-11-20T02:18:51;1.20;;;1.10;;
47790;SDS011;33547;49.044;1.156;2022-11-20T02:24:19;1.83;;;1.25;;
47790;SDS011;33547;49.044;1.156;2022-11-20T02:27:00;2.03;;;1.63;;
47790;SDS011;33547;49.044;1.156;2022-11-20T02:29:36;2.63;;;1.48;;
47790;SDS011;33547;49.044;1.156;2022-11-20T02:32:38;2.05;;;1.42;;
47790;SDS011;33547;49.044;1.156;2022-11-20T02:35:47;1.55;;;1.40;;
47790;SDS011;33547;49.044;1.156;2022-11-20T02:37:54;5.20;;;1.63;;
47790;SDS011;33547;49.044;1.156;2022-11-20T02:40:21;3.00;;;1.42;;
47790;SDS011;33547;49.044;1.156;2022-11-20T02:42:51;2.88;;;1.38;;
47790;SDS011;33547;49.044;1.156;2022-11-20T02:45:20;1.83;;;1.50;;
47790;SDS011;33547;49.044;1.156;2022-11-20T02:47:47;1.88;;;1.40;;
47790;SDS011;33547;49.044;1.156;2022-11-20T02:50:13;5.22;;;1.40;;
47790;SDS011;33547;49.044;1.156;2022-11-20T02:52:39;2.58;;;1.27;;
47790;SDS011;33547;49.044;1.156;2022-11-20T02:55:06;1.67;;;1.33;;
47790;SDS011;33547;49.044;1.156;2022-11-20T02:57:32;2.33;;;1.35;;
47790;SDS011;33547;49.044;1.156;2022-11-20T02:59:58;1.00;;;0.93;;
47790;SDS011;33547;49.044;1.156;2022-11-20T03:02:24;1.30;;;1.20;;
47790;SDS011;33547;49.044;1.156;2022-11-20T03:04:50;1.85;;;1.50;;
47790;SDS011;33547;49.044;1.156;2022-11-20T03:07:16;1.38;;;1.27;;
47790;SDS011;33547;49.044;1.156;2022-11-20T03:09:41;4.88;;;1.60;;
47790;SDS011;33547;49.044;1.156;2022-11-20T03:12:07;3.08;;;1.10;;
47790;SDS011;33547;49.044;1.156;2022-11-20T03:14:34;2.15;;;1.33;;
47790;SDS011;33547;49.044;1.156;2022-11-20T03:16:59;2.67;;;1.58;;
47790;SDS011;33547;49.044;1.156;2022-11-20T03:19:25;1.60;;;1.45;;
47790;SDS011;33547;49.044;1.156;2022-11-20T03:21:51;6.45;;;1.40;;
47790;SDS011;33547;49.044;1.156;2022-11-20T03:24:17;2.70;;;1.40;;
47790;SDS011;33547;49.044;1.156;2022-11-20T03:26:43;3.53;;;1.38;;
47790;SDS011;33547;49.044;1.156;2022-11-20T03:29:08;1.45;;;1.33;;
47790;SDS011;33547;49.044;1.156;2022-11-20T03:31:35;2.08;;;1.50;;
47790;SDS011;33547;49.044;1.156;2022-11-20T03:34:05;2.13;;;1.13;;
47790;SDS011;33547;49.044;1.156;2022-11-20T03:36:33;3.95;;;1.40;;
47790;SDS011;33547;49.044;1.156;2022-11-20T03:41:39;2.50;;;1.10;;
47790;SDS011;33547;49.044;1.156;2022-11-20T03:44:08;2.15;;;1.38;;
47790;SDS011;33547;49.044;1.156;2022-11-20T03:46:36;2.25;;;1.35;;
47790;SDS011;33547;49.044;1.156;2022-11-20T03:49:03;2.10;;;1.42;;
47790;SDS011;33547;49.044;1.156;2022-11-20T03:51:30;2.97;;;1.38;;
47790;SDS011;33547;49.044;1.156;2022-11-20T03:54:01;4.07;;;1.10;;
47790;SDS011;33547;49.044;1.156;2022-11-20T03:56:31;4.18;;;1.27;;
47790;SDS011;33547;49.044;1.156;2022-11-20T03:59:00;1.98;;;1.20;;
47790;SDS011;33547;49.044;1.156;2022-11-20T04:01:30;2.47;;;1.30;;
47790;SDS011;33547;49.044;1.156;2022-11-20T04:03:58;1.75;;;1.35;;
47790;SDS011;33547;49.044;1.156;2022-11-20T04:06:34;2.42;;;1.35;;
47790;SDS011;33547;49.044;1.156;2022-11-20T04:09:02;1.38;;;1.05;;
47790;SDS011;33547;49.044;1.156;2022-11-20T04:11:30;2.10;;;1.35;;
47790;SDS011;33547;49.044;1.156;2022-11-20T04:14:01;1.35;;;1.25;;
47790;SDS011;33547;49.044;1.156;2022-11-20T04:16:30;1.85;;;1.23;;
47790;SDS011;33547;49.044;1.156;2022-11-20T04:18:59;3.00;;;1.40;;
47790;SDS011;33547;49.044;1.156;2022-11-20T04:21:27;2.00;;;1.40;;
47790;SDS011;33547;49.044;1.156;2022-11-20T04:23:54;1.92;;;1.33;;
47790;SDS011;33547;49.044;1.156;2022-11-20T04:26:22;2.25;;;1.10;;
47790;SDS011;33547;49.044;1.156;2022-11-20T04:28:49;2.60;;;1.38;;
47790;SDS011;33547;49.044;1.156;2022-11-20T04:31:16;1.25;;;0.88;;
47790;SDS011;33547;49.044;1.156;2022-11-20T04:33:48;1.42;;;1.20;;
47790;SDS011;33547;49.044;1.156;2022-11-20T04:36:15;1.52;;;1.00;;
47790;SDS011;33547;49.044;1.156;2022-11-20T04:38:50;2.45;;;1.27;;
47790;SDS011;33547;49.044;1.156;2022-11-20T04:41:25;1.48;;;1.17;;
47790;SDS011;33547;49.044;1.156;2022-11-20T04:43:54;1.45;;;1.33;;
47790;SDS011;33547;49.044;1.156;2022-11-20T04:46:28;2.55;;;1.20;;
47790;SDS011;33547;49.044;1.156;2022-11-20T04:49:00;2.10;;;1.20;;
47790;SDS011;33547;49.044;1.156;2022-11-20T04:51:26;3.03;;;0.95;;
47790;SDS011;33547;49.044;1.156;2022-11-20T04:53:53;1.23;;;1.13;;
47790;SDS011;33547;49.044;1.156;2022-11-20T04:56:18;1.25;;;1.13;;
47790;SDS011;33547;49.044;1.156;2022-11-20T04:58:44;1.27;;;1.05;;
47790;SDS011;33547;49.044;1.156;2022-11-20T05:01:12;3.50;;;1.10;;
47790;SDS011;33547;49.044;1.156;2022-11-20T05:03:43;0.85;;;0.82;;
47790;SDS011;33547;49.044;1.156;2022-11-20T05:06:10;1.63;;;1.00;;
47790;SDS011;33547;49.044;1.156;2022-11-20T05:08:38;1.23;;;1.13;;
47790;SDS011;33547;49.044;1.156;2022-11-20T05:11:08;3.13;;;1.65;;
47790;SDS011;33547;49.044;1.156;2022-11-20T05:13:40;2.60;;;1.20;;
47790;SDS011;33547;49.044;1.156;2022-11-20T05:16:07;1.60;;;0.88;;
47790;SDS011;33547;49.044;1.156;2022-11-20T05:18:45;2.75;;;1.10;;
47790;SDS011;33547;49.044;1.156;2022-11-20T05:21:12;1.92;;;0.93;;
47790;SDS011;33547;49.044;1.156;2022-11-20T05:23:38;2.38;;;1.40;;
47790;SDS011;33547;49.044;1.156;2022-11-20T05:26:06;0.85;;;0.77;;
47790;SDS011;33547;49.044;1.156;2022-11-20T05:28:38;1.60;;;1.00;;
47790;SDS011;33547;49.044;1.156;2022-11-20T05:31:04;1.50;;;1.10;;
47790;SDS011;33547;49.044;1.156;2022-11-20T05:33:42;4.22;;;1.67;;
47790;SDS011;33547;49.044;1.156;2022-11-20T05:36:10;1.38;;;0.95;;
47790;SDS011;33547;49.044;1.156;2022-11-20T05:38:37;1.20;;;0.98;;
47790;SDS011;33547;49.044;1.156;2022-11-20T05:41:04;2.25;;;1.00;;
47790;SDS011;33547;49.044;1.156;2022-11-20T05:43:35;1.23;;;0.85;;
47790;SDS011;33547;49.044;1.156;2022-11-20T05:46:03;0.90;;;0.90;;
47790;SDS011;33547;49.044;1.156;2022-11-20T05:48:30;1.50;;;0.88;;
47790;SDS011;33547;49.044;1.156;2022-11-20T05:50:57;3.35;;;1.10;;
47790;SDS011;33547;49.044;1.156;2022-11-20T05:53:24;1.90;;;1.05;;
47790;SDS011;33547;49.044;1.156;2022-11-20T05:56:00;1.13;;;1.00;;
47790;SDS011;33547;49.044;1.156;2022-11-20T05:58:29;3.22;;;1.33;;
47790;SDS011;33547;49.044;1.156;2022-11-20T06:01:02;1.27;;;1.17;;
47790;SDS011;33547;49.044;1.156;2022-11-20T06:03:34;1.55;;;0.85;;
47790;SDS011;33547;49.044;1.156;2022-11-20T06:06:00;2.63;;;1.00;;
47790;SDS011;33547;49.044;1.156;2022-11-20T06:08:28;1.85;;;0.93;;
47790;SDS011;33547;49.044;1.156;2022-11-20T06:10:54;1.10;;;0.90;;
47790;SDS011;33547;49.044;1.156;2022-11-20T06:13:20;0.68;;;0.68;;
47790;SDS011;33547;49.044;1.156;2022-11-20T06:15:49;1.27;;;0.77;;
47790;SDS011;33547;49.044;1.156;2022-11-20T06:18:18;1.80;;;1.27;;
47790;SDS011;33547;49.044;1.156;2022-11-20T06:20:45;1.17;;;0.73;;
47790;SDS011;33547;49.044;1.156;2022-11-20T06:23:11;2.63;;;0.85;;
47790;SDS011;33547;49.044;1.156;2022-11-20T06:25:38;4.95;;;1.27;;
47790;SDS011;33547;49.044;1.156;2022-11-20T06:28:07;1.05;;;0.80;;
47790;SDS011;33547;49.044;1.156;2022-11-20T06:30:34;1.60;;;1.10;;
47790;SDS011;33547;49.044;1.156;2022-11-20T06:33:00;1.67;;;0.80;;
47790;SDS011;33547;49.044;1.156;2022-11-20T06:35:26;1.60;;;0.80;;
47790;SDS011;33547;49.044;1.156;2022-11-20T06:37:52;1.85;;;0.98;;
47790;SDS011;33547;49.044;1.156;2022-11-20T06:40:18;2.55;;;1.08;;
47790;SDS011;33547;49.044;1.156;2022-11-20T06:42:44;0.82;;;0.80;;
47790;SDS011;33547;49.044;1.156;2022-11-20T06:45:10;1.77;;;1.08;;
47790;SDS011;33547;49.044;1.156;2022-11-20T06:47:36;1.63;;;0.80;;
47790;SDS011;33547;49.044;1.156;2022-11-20T06:50:01;1.23;;;0.88;;
47790;SDS011;33547;49.044;1.156;2022-11-20T06:52:28;1.17;;;1.08;;
47790;SDS011;33547;49.044;1.156;2022-11-20T06:54:53;1.45;;;0.80;;
47790;SDS011;33547;49.044;1.156;2022-11-20T06:57:19;1.35;;;0.80;;
47790;SDS011;33547;49.044;1.156;2022-11-20T06:59:45;0.90;;;0.75;;
47790;SDS011;33547;49.044;1.156;2022-11-20T07:02:11;1.45;;;0.85;;
47790;SDS011;33547;49.044;1.156;2022-11-20T07:04:37;1.17;;;0.90;;
47790;SDS011;33547;49.044;1.156;2022-11-20T07:07:04;1.90;;;0.95;;
47790;SDS011;33547;49.044;1.156;2022-11-20T07:09:31;1.25;;;0.73;;
47790;SDS011;33547;49.044;1.156;2022-11-20T07:11:57;1.95;;;0.90;;
47790;SDS011;33547;49.044;1.156;2022-11-20T07:14:23;1.10;;;0.85;;
47790;SDS011;33547;49.044;1.156;2022-11-20T07:16:49;1.20;;;0.90;;
47790;SDS011;33547;49.044;1.156;2022-11-20T07:19:15;1.13;;;0.70;;
47790;SDS011;33547;49.044;1.156;2022-11-20T07:21:40;0.90;;;0.80;;
47790;SDS011;33547;49.044;1.156;2022-11-20T07:24:06;1.10;;;0.80;;
47790;SDS011;33547;49.044;1.156;2022-11-20T07:26:32;2.63;;;0.85;;
47790;SDS011;33547;49.044;1.156;2022-11-20T07:28:58;1.20;;;0.80;;
47790;SDS011;33547;49.044;1.156;2022-11-20T07:31:24;1.00;;;0.90;;
47790;SDS011;33547;49.044;1.156;2022-11-20T07:33:49;0.77;;;0.77;;
47790;SDS011;33547;49.044;1.156;2022-11-20T07:36:15;0.70;;;0.70;;
47790;SDS011;33547;49.044;1.156;2022-11-20T07:38:41;1.48;;;0.98;;
47790;SDS011;33547;49.044;1.156;2022-11-20T07:41:07;0.80;;;0.55;;
47790;SDS011;33547;49.044;1.156;2022-11-20T07:43:32;1.05;;;0.95;;
47790;SDS011;33547;49.044;1.156;2022-11-20T07:45:58;0.80;;;0.80;;
47790;SDS011;33547;49.044;1.156;2022-11-20T07:48:25;0.80;;;0.80;;
47790;SDS011;33547;49.044;1.156;2022-11-20T07:50:54;0.70;;;0.70;;
47790;SDS011;33547;49.044;1.156;2022-11-20T07:53:21;1.20;;;0.90;;
47790;SDS011;33547;49.044;1.156;2022-11-20T07:55:48;1.23;;;1.00;;
47790;SDS011;33547;49.044;1.156;2022-11-20T07:58:14;0.98;;;0.88;;
47790;SDS011;33547;49.044;1.156;2022-11-20T08:00:40;1.17;;;0.90;;
47790;SDS011;33547;49.044;1.156;2022-11-20T08:03:06;0.80;;;0.80;;
47790;SDS011;33547;49.044;1.156;2022-11-20T08:05:32;1.10;;;0.80;;
47790;SDS011;33547;49.044;1.156;2022-11-20T08:07:58;1.58;;;1.10;;
47790;SDS011;33547;49.044;1.156;2022-11-20T08:10:24;1.55;;;0.73;;
47790;SDS011;33547;49.044;1.156;2022-11-20T08:12:51;0.82;;;0.82;;
47790;SDS011;33547;49.044;1.156;2022-11-20T08:15:36;0.95;;;0.90;;
47790;SDS011;33547;49.044;1.156;2022-11-20T08:18:06;1.17;;;1.08;;
47790;SDS011;33547;49.044;1.156;2022-11-20T08:20:34;0.98;;;0.68;;
47790;SDS011;33547;49.044;1.156;2022-11-20T08:23:00;1.08;;;0.85;;
47790;SDS011;33547;49.044;1.156;2022-11-20T08:25:28;1.48;;;0.90;;
47790;SDS011;33547;49.044;1.156;2022-11-20T08:27:58;1.25;;;0.90;;
47790;SDS011;33547;49.044;1.156;2022-11-20T08:30:25;1.00;;;0.85;;
47790;SDS011;33547;49.044;1.156;2022-11-20T08:32:52;0.77;;;0.77;;
47790;SDS011;33547;49.044;1.156;2022-11-20T08:35:19;1.77;;;0.80;;
47790;SDS011;33547;49.044;1.156;2022-11-20T08:37:46;2.00;;;1.00;;
47790;SDS011;33547;49.044;1.156;2022-11-20T08:40:13;1.30;;;0.70;;
47790;SDS011;33547;49.044;1.156;2022-11-20T08:42:49;1.73;;;1.00;;
47790;SDS011;33547;49.044;1.156;2022-11-20T08:45:16;1.67;;;1.10;;
47790;SDS011;33547;49.044;1.156;2022-11-20T08:47:43;3.17;;;1.25;;
47790;SDS011;33547;49.044;1.156;2022-11-20T08:50:10;1.95;;;1.20;;
47790;SDS011;33547;49.044;1.156;2022-11-20T08:52:38;1.98;;;1.25;;
47790;SDS011;33547;49.044;1.156;2022-11-20T08:55:04;3.90;;;1.38;;
47790;SDS011;33547;49.044;1.156;2022-11-20T08:57:32;2.03;;;1.20;;
47790;SDS011;33547;49.044;1.156;2022-11-20T08:59:59;3.38;;;1.02;;
47790;SDS011;33547;49.044;1.156;2022-11-20T09:02:25;2.88;;;1.00;;
47790;SDS011;33547;49.044;1.156;2022-11-20T09:04:51;3.90;;;0.98;;
47790;SDS011;33547;49.044;1.156;2022-11-20T09:07:18;6.57;;;1.13;;
47790;SDS011;33547;49.044;1.156;2022-11-20T09:09:44;2.22;;;0.80;;
47790;SDS011;33547;49.044;1.156;2022-11-20T09:12:10;1.90;;;1.08;;
47790;SDS011;33547;49.044;1.156;2022-11-20T09:14:36;3.05;;;1.25;;
47790;SDS011;33547;49.044;1.156;2022-11-20T09:17:02;2.67;;;0.90;;
47790;SDS011;33547;49.044;1.156;2022-11-20T09:19:27;4.20;;;1.20;;
47790;SDS011;33547;49.044;1.156;2022-11-20T09:21:53;2.33;;;0.90;;
47790;SDS011;33547;49.044;1.156;2022-11-20T09:24:19;3.35;;;1.10;;
47790;SDS011;33547;49.044;1.156;2022-11-20T09:26:48;4.75;;;1.50;;
47790;SDS011;33547;49.044;1.156;2022-11-20T09:29:13;2.60;;;1.10;;
47790;SDS011;33547;49.044;1.156;2022-11-20T09:31:39;1.10;;;1.00;;
47790;SDS011;33547;49.044;1.156;2022-11-20T09:34:05;3.00;;;1.10;;
47790;SDS011;33547;49.044;1.156;2022-11-20T09:36:31;1.88;;;1.00;;
47790;SDS011;33547;49.044;1.156;2022-11-20T09:38:56;3.10;;;0.90;;
47790;SDS011;33547;49.044;1.156;2022-11-20T09:44:47;1.55;;;1.05;;
47790;SDS011;33547;49.044;1.156;2022-11-20T09:50:19;4.50;;;1.75;;
47790;SDS011;33547;49.044;1.156;2022-11-20T09:53:15;4.03;;;1.33;;
47790;SDS011;33547;49.044;1.156;2022-11-20T09:56:06;2.53;;;1.20;;
47790;SDS011;33547;49.044;1.156;2022-11-20T09:58:38;1.83;;;1.08;;
47790;SDS011;33547;49.044;1.156;2022-11-20T10:06:32;3.17;;;0.88;;
47790;SDS011;33547;49.044;1.156;2022-11-20T10:09:50;4.80;;;1.48;;
47790;SDS011;33547;49.044;1.156;2022-11-20T10:17:27;7.63;;;1.30;;
47790;SDS011;33547;49.044;1.156;2022-11-20T10:20:37;3.72;;;1.30;;
47790;SDS011;33547;49.044;1.156;2022-11-20T10:23:16;3.25;;;0.90;;
47790;SDS011;33547;49.044;1.156;2022-11-20T10:26:24;3.35;;;1.00;;
47790;SDS011;33547;49.044;1.156;2022-11-20T10:29:18;2.90;;;0.93;;
47790;SDS011;33547;49.044;1.156;2022-11-20T10:32:00;6.20;;;1.10;;
47790;SDS011;33547;49.044;1.156;2022-11-20T10:37:41;3.88;;;1.25;;
47790;SDS011;33547;49.044;1.156;2022-11-20T10:43:01;4.28;;;1.20;;
47790;SDS011;33547;49.044;1.156;2022-11-20T10:45:40;5.90;;;1.40;;
47790;SDS011;33547;49.044;1.156;2022-11-20T10:48:24;4.85;;;1.15;;
47790;SDS011;33547;49.044;1.156;2022-11-20T10:50:59;7.93;;;1.80;;
47790;SDS011;33547;49.044;1.156;2022-11-20T10:53:56;5.50;;;1.38;;
47790;SDS011;33547;49.044;1.156;2022-11-20T10:56:38;3.65;;;1.60;;
47790;SDS011;33547;49.044;1.156;2022-11-20T11:02:17;6.93;;;1.60;;
47790;SDS011;33547;49.044;1.156;2022-11-20T11:04:46;7.03;;;1.63;;
47790;SDS011;33547;49.044;1.156;2022-11-20T11:09:57;2.83;;;1.50;;
47790;SDS011;33547;49.044;1.156;2022-11-20T11:12:27;8.48;;;2.08;;
47790;SDS011;33547;49.044;1.156;2022-11-20T11:14:55;10.70;;;1.70;;
47790;SDS011;33547;49.044;1.156;2022-11-20T11:17:27;8.85;;;1.73;;
47790;SDS011;33547;49.044;1.156;2022-11-20T11:20:02;14.15;;;5.93;;
47790;SDS011;33547;49.044;1.156;2022-11-20T11:27:55;34.67;;;26.20;;
47790;SDS011;33547;49.044;1.156;2022-11-20T11:30:27;42.60;;;30.00;;
47790;SDS011;33547;49.044;1.156;2022-11-20T11:33:02;37.90;;;30.45;;
47790;SDS011;33547;49.044;1.156;2022-11-20T11:40:36;46.47;;;33.63;;
47790;SDS011;33547;49.044;1.156;2022-11-20T11:43:06;47.28;;;34.33;;
47790;SDS011;33547;49.044;1.156;2022-11-20T11:46:05;43.83;;;33.65;;
47790;SDS011;33547;49.044;1.156;2022-11-20T11:59:54;40.47;;;32.65;;
47790;SDS011;33547;49.044;1.156;2022-11-20T12:02:35;36.97;;;30.38;;
47790;SDS011;33547;49.044;1.156;2022-11-20T12:07:48;35.88;;;29.38;;
47790;SDS011;33547;49.044;1.156;2022-11-20T12:16:28;36.90;;;25.73;;
47790;SDS011;33547;49.044;1.156;2022-11-20T12:19:01;29.88;;;23.25;;
47790;SDS011;33547;49.044;1.156;2022-11-20T12:27:11;21.65;;;18.55;;
47790;SDS011;33547;49.044;1.156;2022-11-20T12:52:57;21.33;;;17.70;;
47790;SDS011;33547;49.044;1.156;2022-11-20T12:55:45;22.23;;;16.98;;
47790;SDS011;33547;49.044;1.156;2022-11-20T12:58:16;18.83;;;15.95;;
47790;SDS011;33547;49.044;1.156;2022-11-20T13:01:04;19.75;;;16.73;;
47790;SDS011;33547;49.044;1.156;2022-11-20T13:07:03;22.65;;;15.93;;
47790;SDS011;33547;49.044;1.156;2022-11-20T13:09:36;20.70;;;16.67;;
47790;SDS011;33547;49.044;1.156;2022-11-20T13:12:11;21.30;;;15.93;;
47790;SDS011;33547;49.044;1.156;2022-11-20T13:20:26;20.70;;;15.80;;
47790;SDS011;33547;49.044;1.156;2022-11-20T13:22:53;18.92;;;14.65;;
47790;SDS011;33547;49.044;1.156;2022-11-20T13:25:35;20.20;;;14.43;;
47790;SDS011;33547;49.044;1.156;2022-11-20T13:30:36;17.92;;;15.80;;
47790;SDS011;33547;49.044;1.156;2022-11-20T13:33:28;17.25;;;14.02;;
47790;SDS011;33547;49.044;1.156;2022-11-20T13:36:02;16.60;;;14.90;;
47790;SDS011;33547;49.044;1.156;2022-11-20T13:38:48;16.67;;;13.45;;
47790;SDS011;33547;49.044;1.156;2022-11-20T13:41:37;15.75;;;13.88;;
47790;SDS011;33547;49.044;1.156;2022-11-20T13:44:09;16.85;;;14.68;;
47790;SDS011;33547;49.044;1.156;2022-11-20T13:46:42;15.95;;;13.68;;
47790;SDS011;33547;49.044;1.156;2022-11-20T13:49:15;15.27;;;12.30;;
47790;SDS011;33547;49.044;1.156;2022-11-20T13:52:03;15.15;;;12.75;;
47790;SDS011;33547;49.044;1.156;2022-11-20T13:55:19;15.70;;;12.88;;
47790;SDS011;33547;49.044;1.156;2022-11-20T14:01:22;14.45;;;12.82;;
47790;SDS011;33547;49.044;1.156;2022-11-20T14:03:50;15.85;;;13.27;;
47790;SDS011;33547;49.044;1.156;2022-11-20T14:06:28;13.48;;;12.07;;
47790;SDS011;33547;49.044;1.156;2022-11-20T14:08:59;14.85;;;12.32;;
47790;SDS011;33547;49.044;1.156;2022-11-20T14:11:26;14.15;;;11.88;;
47790;SDS011;33547;49.044;1.156;2022-11-20T14:13:58;16.77;;;11.90;;
47790;SDS011;33547;49.044;1.156;2022-11-20T14:16:31;14.98;;;12.10;;
47790;SDS011;33547;49.044;1.156;2022-11-20T14:24:45;13.70;;;11.38;;
47790;SDS011;33547;49.044;1.156;2022-11-20T14:27:25;13.48;;;11.98;;
47790;SDS011;33547;49.044;1.156;2022-11-20T14:29:51;12.95;;;11.48;;
47790;SDS011;33547;49.044;1.156;2022-11-20T14:32:18;13.05;;;11.40;;
47790;SDS011;33547;49.044;1.156;2022-11-20T14:34:47;12.60;;;11.23;;
47790;SDS011;33547;49.044;1.156;2022-11-20T14:37:22;14.15;;;12.20;;
47790;SDS011;33547;49.044;1.156;2022-11-20T14:39:55;12.82;;;11.20;;
47790;SDS011;33547;49.044;1.156;2022-11-20T14:42:24;12.45;;;11.07;;
47790;SDS011;33547;49.044;1.156;2022-11-20T14:44:52;12.85;;;10.88;;
47790;SDS011;33547;49.044;1.156;2022-11-20T14:47:29;13.00;;;11.07;;
47790;SDS011;33547;49.044;1.156;2022-11-20T14:49:56;12.98;;;10.65;;
47790;SDS011;33547;49.044;1.156;2022-11-20T14:52:24;11.55;;;10.35;;
47790;SDS011;33547;49.044;1.156;2022-11-20T14:54:52;14.20;;;11.20;;
47790;SDS011;33547;49.044;1.156;2022-11-20T14:57:28;13.70;;;11.15;;
47790;SDS011;33547;49.044;1.156;2022-11-20T15:00:07;13.30;;;10.38;;
47790;SDS011;33547;49.044;1.156;2022-11-20T15:02:46;12.88;;;10.75;;
47790;SDS011;33547;49.044;1.156;2022-11-20T15:05:14;12.35;;;9.77;;
47790;SDS011;33547;49.044;1.156;2022-11-20T15:07:46;11.13;;;9.80;;
47790;SDS011;33547;49.044;1.156;2022-11-20T15:12:54;11.27;;;10.02;;
47790;SDS011;33547;49.044;1.156;2022-11-20T15:18:16;11.55;;;9.82;;
47790;SDS011;33547;49.044;1.156;2022-11-20T15:20:56;10.13;;;9.07;;
47790;SDS011;33547;49.044;1.156;2022-11-20T15:23:26;11.77;;;10.30;;
47790;SDS011;33547;49.044;1.156;2022-11-20T15:25:53;15.07;;;9.02;;
47790;SDS011;33547;49.044;1.156;2022-11-20T15:30:57;14.70;;;8.55;;
47790;SDS011;33547;49.044;1.156;2022-11-20T15:33:23;11.48;;;7.78;;
47790;SDS011;33547;49.044;1.156;2022-11-20T15:35:49;15.93;;;9.18;;
47790;SDS011;33547;49.044;1.156;2022-11-20T15:38:15;13.23;;;8.23;;
47790;SDS011;33547;49.044;1.156;2022-11-20T15:40:41;12.45;;;7.45;;
47790;SDS011;33547;49.044;1.156;2022-11-20T15:43:06;13.20;;;7.65;;
47790;SDS011;33547;49.044;1.156;2022-11-20T15:45:49;15.63;;;7.30;;
47790;SDS011;33547;49.044;1.156;2022-11-20T15:48:41;13.63;;;6.38;;
47790;SDS011;33547;49.044;1.156;2022-11-20T15:53:36;9.32;;;6.28;;
47790;SDS011;33547;49.044;1.156;2022-11-20T15:56:08;12.00;;;6.82;;
47790;SDS011;33547;49.044;1.156;2022-11-20T15:58:37;12.38;;;7.40;;
47790;SDS011;33547;49.044;1.156;2022-11-20T16:01:04;16.00;;;7.28;;
47790;SDS011;33547;49.044;1.156;2022-11-20T16:03:29;11.70;;;7.22;;
47790;SDS011;33547;49.044;1.156;2022-11-20T16:05:55;12.90;;;7.32;;
47790;SDS011;33547;49.044;1.156;2022-11-20T16:08:21;12.75;;;6.45;;
47790;SDS011;33547;49.044;1.156;2022-11-20T16:10:47;13.98;;;7.30;;
47790;SDS011;33547;49.044;1.156;2022-11-20T16:13:13;9.90;;;6.22;;
47790;SDS011;33547;49.044;1.156;2022-11-20T16:16:01;14.40;;;7.40;;
47790;SDS011;33547;49.044;1.156;2022-11-20T16:18:35;12.20;;;6.50;;
47790;SDS011;33547;49.044;1.156;2022-11-20T16:21:00;12.35;;;6.82;;
47790;SDS011;33547;49.044;1.156;2022-11-20T16:23:27;10.73;;;6.53;;
47790;SDS011;33547;49.044;1.156;2022-11-20T16:25:53;12.50;;;6.43;;
47790;SDS011;33547;49.044;1.156;2022-11-20T16:28:19;13.93;;;6.50;;
47790;SDS011;33547;49.044;1.156;2022-11-20T16:30:45;10.02;;;5.63;;
47790;SDS011;33547;49.044;1.156;2022-11-20T16:33:12;11.27;;;5.85;;
47790;SDS011;33547;49.044;1.156;2022-11-20T16:35:40;13.10;;;5.85;;
47790;SDS011;33547;49.044;1.156;2022-11-20T16:38:06;9.90;;;5.60;;
47790;SDS011;33547;49.044;1.156;2022-11-20T16:40:32;12.00;;;5.93;;
47790;SDS011;33547;49.044;1.156;2022-11-20T16:43:01;11.23;;;5.93;;
47790;SDS011;33547;49.044;1.156;2022-11-20T16:45:39;11.35;;;6.05;;
47790;SDS011;33547;49.044;1.156;2022-11-20T16:48:08;9.90;;;5.55;;
47790;SDS011;33547;49.044;1.156;2022-11-20T16:50:43;10.70;;;6.10;;
47790;SDS011;33547;49.044;1.156;2022-11-20T16:53:12;10.75;;;5.80;;
47790;SDS011;33547;49.044;1.156;2022-11-20T16:55:38;8.82;;;5.40;;
47790;SDS011;33547;49.044;1.156;2022-11-20T16:58:03;8.32;;;5.32;;
47790;SDS011;33547;49.044;1.156;2022-11-20T17:00:29;7.20;;;4.70;;
47790;SDS011;33547;49.044;1.156;2022-11-20T17:02:55;12.57;;;5.32;;
47790;SDS011;33547;49.044;1.156;2022-11-20T17:05:20;8.70;;;5.15;;
47790;SDS011;33547;49.044;1.156;2022-11-20T17:07:46;6.45;;;4.07;;